Time,TemperatureF,DewpointF,PressureIn,WindDirection,WindDirectionDegrees,WindSpeedMPH,WindSpeedGustMPH,Humidity,HourlyPrecipIn,Conditions,Clouds,dailyrainin,SoftwareType,DateUTC
2013-07-07 00:12:00,66.8,66.0,30.14,WSW,250,0.0,1.0,96,0.05,,,0.50,weatherlink.com 1.10,2013-07-07 04:12:00,
2013-07-07 00:27:00,66.6,66.0,30.14,WSW,250,0.0,0.0,96,0.04,,,0.51,weatherlink.com 1.10,2013-07-07 04:27:00,
2013-07-07 00:42:00,66.4,65.0,30.14,WSW,250,1.0,3.0,96,0.05,,,0.53,weatherlink.com 1.10,2013-07-07 04:42:00,
2013-07-07 00:57:00,66.2,65.0,30.13,WNW,291,0.0,1.0,96,0.05,,,0.54,weatherlink.com 1.10,2013-07-07 04:57:00,
2013-07-07 01:12:00,66.1,65.0,30.13,WNW,291,0.0,1.0,96,0.05,,,0.55,weatherlink.com 1.10,2013-07-07 05:12:00,
2013-07-07 01:27:00,66.0,65.0,30.13,WNW,291,0.0,1.0,96,0.06,,,0.57,weatherlink.com 1.10,2013-07-07 05:27:00,
2013-07-07 01:42:00,65.9,65.0,30.12,WNW,291,0.0,0.0,96,0.05,,,0.58,weatherlink.com 1.10,2013-07-07 05:42:00,
2013-07-07 01:57:00,65.8,65.0,30.12,WNW,291,0.0,0.0,96,0.06,,,0.60,weatherlink.com 1.10,2013-07-07 05:57:00,
2013-07-07 02:12:00,65.6,65.0,30.11,WNW,291,0.0,1.0,96,0.05,,,0.61,weatherlink.com 1.10,2013-07-07 06:12:00,
2013-07-07 02:27:00,65.3,64.0,30.11,WNW,291,0.0,0.0,96,0.05,,,0.62,weatherlink.com 1.10,2013-07-07 06:27:00,
2013-07-07 02:44:00,65.2,64.0,30.10,WNW,291,0.0,1.0,96,0.05,,,0.64,weatherlink.com 1.10,2013-07-07 06:44:00,
2013-07-07 02:57:00,65.2,64.0,30.09,WNW,291,0.0,0.0,96,0.05,,,0.65,weatherlink.com 1.10,2013-07-07 06:57:00,
2013-07-07 03:12:00,65.2,64.0,30.09,WNW,291,0.0,0.0,96,0.05,,,0.66,weatherlink.com 1.10,2013-07-07 07:12:00,
2013-07-07 03:27:00,65.3,64.0,30.10,WNW,291,0.0,0.0,96,0.05,,,0.67,weatherlink.com 1.10,2013-07-07 07:27:00,
2013-07-07 03:42:00,65.3,64.0,30.09,WNW,291,0.0,1.0,96,0.06,,,0.69,weatherlink.com 1.10,2013-07-07 07:42:00,
2013-07-07 03:57:00,65.4,64.0,30.09,WNW,291,0.0,1.0,96,0.05,,,0.70,weatherlink.com 1.10,2013-07-07 07:57:00,
2013-07-07 04:12:00,65.4,64.0,30.09,NW,305,0.0,1.0,96,0.05,,,0.71,weatherlink.com 1.10,2013-07-07 08:12:00,
2013-07-07 04:27:00,65.4,64.0,30.09,NNE,14,0.0,2.0,96,0.05,,,0.00,weatherlink.com 1.10,2013-07-07 08:27:00,
2013-07-07 04:42:00,65.6,65.0,30.09,NNE,14,0.0,0.0,96,0.04,,,0.01,weatherlink.com 1.10,2013-07-07 08:42:00,
2013-07-07 04:57:00,65.6,65.0,30.09,NNE,14,0.0,0.0,96,0.05,,,0.03,weatherlink.com 1.10,2013-07-07 08:57:00,
2013-07-07 05:12:00,65.7,65.0,30.08,NNE,14,0.0,0.0,97,0.05,,,0.04,weatherlink.com 1.10,2013-07-07 09:12:00,
2013-07-07 05:27:00,65.7,65.0,30.08,NNE,14,0.0,1.0,97,0.05,,,0.05,weatherlink.com 1.10,2013-07-07 09:27:00,
2013-07-07 05:42:00,66.0,65.0,30.08,NNE,14,0.0,0.0,97,0.05,,,0.06,weatherlink.com 1.10,2013-07-07 09:42:00,
2013-07-07 05:57:00,66.1,65.0,30.08,NNE,14,0.0,0.0,97,0.04,,,0.07,weatherlink.com 1.10,2013-07-07 09:57:00,
2013-07-07 06:12:00,66.1,65.0,30.09,NE,34,0.0,1.0,97,0.05,,,0.09,weatherlink.com 1.10,2013-07-07 10:12:00,
2013-07-07 06:28:00,66.1,65.0,30.09,NE,34,0.0,1.0,96,0.05,,,0.10,weatherlink.com 1.10,2013-07-07 10:28:00,
2013-07-07 06:42:00,66.1,65.0,30.08,NE,34,0.0,0.0,97,0.05,,,0.11,weatherlink.com 1.10,2013-07-07 10:42:00,
2013-07-07 06:57:00,66.1,65.0,30.08,NE,34,0.0,0.0,97,0.05,,,0.12,weatherlink.com 1.10,2013-07-07 10:57:00,
2013-07-07 07:12:00,66.3,66.0,30.07,NE,34,0.0,0.0,97,0.04,,,0.13,weatherlink.com 1.10,2013-07-07 11:12:00,
2013-07-07 07:27:00,66.7,66.0,30.08,NNE,28,0.0,2.0,97,0.05,,,0.15,weatherlink.com 1.10,2013-07-07 11:27:00,
2013-07-07 07:42:00,67.6,67.0,30.09,NE,47,1.0,3.0,97,0.06,,,0.17,weatherlink.com 1.10,2013-07-07 11:42:00,
2013-07-07 07:57:00,67.5,67.0,30.10,NE,46,0.0,1.0,97,0.07,,,0.19,weatherlink.com 1.10,2013-07-07 11:57:00,
2013-07-07 08:12:00,67.7,67.0,30.10,NE,46,0.0,1.0,97,0.08,,,0.21,weatherlink.com 1.10,2013-07-07 12:12:00,
2013-07-07 08:27:00,68.0,67.0,30.11,NE,46,0.0,2.0,97,0.08,,,0.23,weatherlink.com 1.10,2013-07-07 12:27:00,
2013-07-07 08:42:00,68.3,68.0,30.11,NE,46,0.0,1.0,97,0.08,,,0.25,weatherlink.com 1.10,2013-07-07 12:42:00,
2013-07-07 08:57:00,68.8,68.0,30.11,NE,46,0.0,0.0,97,0.08,,,0.27,weatherlink.com 1.10,2013-07-07 12:57:00,
2013-07-07 09:12:00,68.8,68.0,30.11,WSW,248,0.0,3.0,97,0.08,,,0.29,weatherlink.com 1.10,2013-07-07 13:12:00,
2013-07-07 09:27:00,69.4,69.0,30.11,WSW,245,0.0,2.0,97,0.08,,,0.31,weatherlink.com 1.10,2013-07-07 13:27:00,
2013-07-07 09:42:00,69.5,68.0,30.11,West,268,0.0,5.0,95,0.08,,,0.33,weatherlink.com 1.10,2013-07-07 13:42:00,
2013-07-07 09:57:00,70.6,69.0,30.11,West,279,2.0,5.0,94,0.08,,,0.35,weatherlink.com 1.10,2013-07-07 13:57:00,
2013-07-07 10:12:00,71.4,69.0,30.11,WSW,253,3.0,6.0,91,0.08,,,0.37,weatherlink.com 1.10,2013-07-07 14:12:00,
2013-07-07 10:27:00,71.6,69.0,30.10,WSW,241,1.0,6.0,90,0.08,,,0.39,weatherlink.com 1.10,2013-07-07 14:27:00,
2013-07-07 10:42:00,72.0,68.0,30.10,West,265,2.0,6.0,88,0.08,,,0.41,weatherlink.com 1.10,2013-07-07 14:42:00,
2013-07-07 10:57:00,72.1,68.0,30.10,West,266,2.0,5.0,86,0.08,,,0.43,weatherlink.com 1.10,2013-07-07 14:57:00,
2013-07-07 11:13:00,73.7,68.0,30.09,WNW,282,7.0,7.0,83,0.08,,,0.45,weatherlink.com 1.10,2013-07-07 15:13:00,
2013-07-07 11:28:00,74.2,70.0,30.09,WSW,257,2.0,8.0,85,0.08,,,0.47,weatherlink.com 1.10,2013-07-07 15:28:00,
2013-07-07 11:43:00,75.0,70.0,30.09,West,269,1.0,4.0,83,0.08,,,0.49,weatherlink.com 1.10,2013-07-07 15:43:00,
2013-07-07 11:58:00,75.8,70.0,30.09,West,269,0.0,10.0,81,0.08,,,0.51,weatherlink.com 1.10,2013-07-07 15:58:00,
2013-07-07 12:13:00,75.5,70.0,30.09,West,276,0.0,9.0,82,0.09,,,0.54,weatherlink.com 1.10,2013-07-07 16:13:00,
2013-07-07 12:28:00,76.0,71.0,30.09,WSW,249,0.0,3.0,83,0.09,,,0.56,weatherlink.com 1.10,2013-07-07 16:28:00,
2013-07-07 12:43:00,77.6,70.0,30.08,SE,126,1.0,4.0,77,0.09,,,0.58,weatherlink.com 1.10,2013-07-07 16:43:00,
2013-07-07 12:58:00,77.3,71.0,30.07,South,190,0.0,4.0,80,0.08,,,0.60,weatherlink.com 1.10,2013-07-07 16:58:00,
2013-07-07 13:13:00,76.8,70.0,30.07,NNE,18,1.0,1.0,80,0.08,,,0.62,weatherlink.com 1.10,2013-07-07 17:13:00,
2013-07-07 13:28:00,75.4,69.0,30.08,SW,217,2.0,4.0,80,0.08,,,0.64,weatherlink.com 1.10,2013-07-07 17:28:00,
2013-07-07 13:43:00,74.9,69.0,30.08,SW,232,0.0,4.0,82,0.08,,,0.66,weatherlink.com 1.10,2013-07-07 17:43:00,
2013-07-07 13:58:00,74.7,70.0,30.07,SW,224,0.0,3.0,84,0.08,,,0.68,weatherlink.com 1.10,2013-07-07 17:58:00,
2013-07-07 14:13:00,75.6,70.0,30.07,West,263,0.0,3.0,83,0.08,,,0.70,weatherlink.com 1.10,2013-07-07 18:13:00,
2013-07-07 14:28:00,73.8,68.0,30.07,East,98,0.0,14.0,82,0.09,,,0.73,weatherlink.com 1.10,2013-07-07 18:28:00,
2013-07-07 14:43:00,71.9,68.0,30.07,NE,49,6.0,10.0,87,0.07,,,0.74,weatherlink.com 1.10,2013-07-07 18:43:00,
2013-07-07 14:58:00,69.7,67.0,30.07,ENE,67,7.0,9.0,91,0.08,,,0.76,weatherlink.com 1.10,2013-07-07 18:58:00,
2013-07-07 15:13:00,69.4,67.0,30.08,SE,126,2.0,10.0,93,0.08,,,0.78,weatherlink.com 1.10,2013-07-07 19:13:00,
2013-07-07 15:28:00,69.3,67.0,30.07,ESE,106,3.0,6.0,93,0.07,,,0.80,weatherlink.com 1.10,2013-07-07 19:28:00,
2013-07-07 15:43:00,69.3,68.0,30.07,WSW,252,2.0,3.0,94,0.06,,,0.81,weatherlink.com 1.10,2013-07-07 19:43:00,
2013-07-07 15:58:00,69.3,67.0,30.07,ENE,65,0.0,4.0,93,0.06,,,0.82,weatherlink.com 1.10,2013-07-07 19:58:00,
2013-07-07 16:13:00,68.9,67.0,30.07,SE,125,0.0,0.0,93,0.06,,,0.84,weatherlink.com 1.10,2013-07-07 20:13:00,
2013-07-07 16:28:00,68.4,66.0,30.07,West,281,0.0,4.0,93,0.06,,,0.86,weatherlink.com 1.10,2013-07-07 20:28:00,
2013-07-07 16:43:00,67.8,66.0,30.07,West,281,0.0,1.0,94,0.06,,,0.87,weatherlink.com 1.10,2013-07-07 20:43:00,
2013-07-07 16:58:00,67.6,66.0,30.08,West,281,1.0,1.0,94,0.07,,,0.89,weatherlink.com 1.10,2013-07-07 20:58:00,
2013-07-07 17:13:00,67.0,65.0,30.07,West,281,0.0,1.0,94,0.07,,,0.91,weatherlink.com 1.10,2013-07-07 21:13:00,
2013-07-07 17:28:00,66.8,65.0,30.07,West,281,0.0,1.0,95,0.06,,,0.92,weatherlink.com 1.10,2013-07-07 21:28:00,
2013-07-07 17:43:00,66.6,65.0,30.07,West,281,0.0,0.0,94,0.07,,,0.94,weatherlink.com 1.10,2013-07-07 21:43:00,
2013-07-07 17:58:00,66.8,65.0,30.05,West,281,0.0,0.0,95,0.06,,,0.95,weatherlink.com 1.10,2013-07-07 21:58:00,
2013-07-07 18:13:00,67.0,66.0,30.07,West,281,0.0,2.0,95,0.06,,,0.97,weatherlink.com 1.10,2013-07-07 22:13:00,
2013-07-07 18:28:00,67.0,66.0,30.07,West,281,1.0,1.0,95,0.06,,,0.98,weatherlink.com 1.10,2013-07-07 22:28:00,
2013-07-07 18:43:00,67.0,66.0,30.07,West,281,0.0,0.0,95,0.05,,,0.99,weatherlink.com 1.10,2013-07-07 22:43:00,
2013-07-07 18:58:00,66.6,65.0,30.07,WSW,243,0.0,2.0,94,0.05,,,1.00,weatherlink.com 1.10,2013-07-07 22:58:00,
2013-07-07 19:13:00,66.6,65.0,30.07,WSW,243,0.0,1.0,95,0.05,,,1.02,weatherlink.com 1.10,2013-07-07 23:13:00,
2013-07-07 19:28:00,66.6,65.0,30.08,WSW,243,0.0,0.0,95,0.05,,,1.03,weatherlink.com 1.10,2013-07-07 23:28:00,
2013-07-07 19:43:00,66.5,65.0,30.08,WSW,243,0.0,0.0,95,0.05,,,1.04,weatherlink.com 1.10,2013-07-07 23:43:00,
2013-07-07 19:58:00,66.5,65.0,30.08,WSW,243,0.0,0.0,95,0.05,,,1.05,weatherlink.com 1.10,2013-07-07 23:58:00,
2013-07-07 20:13:00,66.8,65.0,30.08,WSW,243,0.0,0.0,95,0.04,,,1.06,weatherlink.com 1.10,2013-07-08 00:13:00,
2013-07-07 20:28:00,66.8,65.0,30.09,WSW,243,0.0,0.0,95,0.04,,,1.07,weatherlink.com 1.10,2013-07-08 00:28:00,
2013-07-07 20:43:00,66.5,65.0,30.09,WSW,243,0.0,1.0,95,0.04,,,1.08,weatherlink.com 1.10,2013-07-08 00:43:00,
2013-07-07 20:58:00,66.3,65.0,30.09,WSW,243,0.0,0.0,95,0.04,,,1.09,weatherlink.com 1.10,2013-07-08 00:58:00,
2013-07-07 21:14:00,66.1,65.0,30.09,WSW,243,0.0,0.0,95,0.04,,,1.10,weatherlink.com 1.10,2013-07-08 01:14:00,
2013-07-07 21:28:00,66.1,65.0,30.10,WSW,243,0.0,0.0,95,0.04,,,1.11,weatherlink.com 1.10,2013-07-08 01:28:00,
2013-07-07 21:43:00,66.0,65.0,30.11,WSW,243,0.0,0.0,95,0.04,,,1.12,weatherlink.com 1.10,2013-07-08 01:43:00,
2013-07-07 21:58:00,66.0,65.0,30.12,WSW,243,0.0,0.0,95,0.04,,,1.13,weatherlink.com 1.10,2013-07-08 01:58:00,
2013-07-07 22:13:00,65.9,65.0,30.12,WSW,243,0.0,0.0,95,0.04,,,1.14,weatherlink.com 1.10,2013-07-08 02:13:00,
2013-07-07 22:28:00,65.8,64.0,30.13,WSW,243,0.0,0.0,95,0.04,,,1.15,weatherlink.com 1.10,2013-07-08 02:28:00,
2013-07-07 22:43:00,65.8,65.0,30.13,WSW,243,0.0,0.0,96,0.04,,,1.16,weatherlink.com 1.10,2013-07-08 02:43:00,
2013-07-07 22:58:00,65.8,65.0,30.12,WSW,243,0.0,0.0,96,0.04,,,1.17,weatherlink.com 1.10,2013-07-08 02:58:00,
2013-07-07 23:13:00,65.6,65.0,30.12,WSW,243,0.0,0.0,96,0.04,,,1.18,weatherlink.com 1.10,2013-07-08 03:13:00,
2013-07-07 23:28:00,65.5,64.0,30.12,WSW,243,0.0,0.0,95,0.04,,,1.19,weatherlink.com 1.10,2013-07-08 03:28:00,
2013-07-07 23:43:00,65.4,64.0,30.12,WSW,243,0.0,0.0,95,0.04,,,1.20,weatherlink.com 1.10,2013-07-08 03:43:00,
2013-07-07 23:58:00,65.3,64.0,30.12,WSW,243,0.0,0.0,96,0.03,,,1.20,weatherlink.com 1.10,2013-07-08 03:58:00,